createdAt,value
2023-01-19T00:01:01.851Z,1.09
2023-01-19T00:03:29.726Z,1.13
2023-01-19T00:05:57.461Z,1.14
2023-01-19T00:08:25.127Z,1.09
2023-01-19T00:10:52.897Z,1.10
2023-01-19T00:13:20.711Z,1.05
2023-01-19T00:15:48.305Z,1.06
2023-01-19T00:18:15.892Z,1.02
2023-01-19T00:20:46.815Z,0.89
2023-01-19T00:23:15.951Z,0.90
2023-01-19T00:25:43.670Z,0.97
2023-01-19T00:28:12.856Z,1.00
2023-01-19T00:30:41.912Z,0.95
2023-01-19T00:33:10.496Z,0.80
2023-01-19T00:35:38.241Z,0.85
2023-01-19T00:38:05.898Z,0.84
2023-01-19T00:40:33.637Z,0.69
2023-01-19T00:43:01.731Z,0.85
2023-01-19T00:45:29.646Z,0.55
2023-01-19T00:47:57.399Z,0.51
2023-01-19T00:50:30.262Z,0.74
2023-01-19T00:53:01.377Z,0.29
2023-01-19T00:55:31.168Z,0.63
2023-01-19T00:57:58.989Z,0.66
2023-01-19T01:00:27.029Z,0.64
2023-01-19T01:02:55.414Z,0.30
2023-01-19T01:05:23.107Z,0.57
2023-01-19T01:07:51.114Z,0.59
2023-01-19T01:10:26.725Z,0.63
2023-01-19T01:13:21.015Z,0.60
2023-01-19T01:15:42.986Z,0.59
2023-01-19T01:18:10.802Z,0.67
2023-01-19T01:20:38.400Z,0.68
2023-01-19T01:23:06.090Z,0.72
2023-01-19T01:25:37.622Z,0.60
2023-01-19T01:28:08.687Z,0.65
2023-01-19T01:30:39.941Z,0.64
2023-01-19T01:33:11.742Z,0.42
2023-01-19T01:35:39.653Z,0.51
2023-01-19T01:38:07.566Z,0.52
2023-01-19T01:40:35.202Z,0.46
2023-01-19T01:43:03.658Z,0.27
2023-01-19T01:45:40.220Z,0.30
2023-01-19T01:48:30.783Z,0.43
2023-01-19T01:51:25.850Z,0.41
2023-01-19T01:54:10.653Z,0.36
2023-01-19T01:56:46.236Z,-0.13
2023-01-19T01:59:25.684Z,0.23
2023-01-19T02:02:24.496Z,0.48
2023-01-19T02:04:59.105Z,0.54
2023-01-19T02:08:06.758Z,0.46
2023-01-19T02:10:53.485Z,0.35
2023-01-19T02:13:22.473Z,0.23
2023-01-19T02:15:58.314Z,-0.25
2023-01-19T02:18:29.861Z,-0.20
2023-01-19T02:21:11.750Z,0.03
2023-01-19T02:23:46.411Z,0.20
2023-01-19T02:26:22.525Z,-0.05
2023-01-19T02:28:58.882Z,-0.27
2023-01-19T02:31:29.010Z,0.11
2023-01-19T02:33:57.586Z,0.21
2023-01-19T02:37:10.372Z,0.21
2023-01-19T02:39:47.704Z,0.32
2023-01-19T02:42:39.890Z,0.20
2023-01-19T02:45:09.890Z,0.14
2023-01-19T02:47:47.331Z,-0.05
2023-01-19T02:50:49.223Z,0.07
2023-01-19T02:53:35.058Z,0.08
2023-01-19T02:56:40.315Z,0.14
2023-01-19T02:59:47.107Z,0.15
2023-01-19T03:02:34.971Z,0.13
2023-01-19T03:05:38.493Z,0.13
2023-01-19T03:08:48.242Z,-0.10
2023-01-19T03:11:16.397Z,-0.06
2023-01-19T03:13:47.303Z,-0.10
2023-01-19T03:16:46.049Z,-0.15
2023-01-19T03:19:23.921Z,-0.16
2023-01-19T03:22:09.465Z,-0.21
2023-01-19T03:24:46.301Z,-0.51
2023-01-19T03:27:25.241Z,-0.33
2023-01-19T03:29:56.664Z,-0.70
2023-01-19T03:32:37.407Z,-0.52
2023-01-19T03:35:12.741Z,-0.60
2023-01-19T03:37:43.898Z,-0.62
2023-01-19T03:40:12.889Z,-0.44
2023-01-19T03:42:41.103Z,-0.61
2023-01-19T03:45:12.157Z,-0.76
2023-01-19T03:47:41.238Z,-0.54
2023-01-19T03:50:15.088Z,-0.80
2023-01-19T03:52:49.134Z,-0.80
2023-01-19T03:55:16.722Z,-0.74
2023-01-19T03:57:45.252Z,-0.61
2023-01-19T04:00:13.910Z,-0.53
2023-01-19T04:02:41.980Z,-0.50
2023-01-19T04:05:10.015Z,-0.91
2023-01-19T04:07:37.889Z,-0.74
2023-01-19T04:10:06.420Z,-0.89
2023-01-19T04:12:34.056Z,-0.83
2023-01-19T04:15:01.688Z,-0.75
2023-01-19T04:17:29.282Z,-0.80
2023-01-19T04:19:57.050Z,-0.65
2023-01-19T04:22:24.810Z,-0.57
2023-01-19T04:24:52.588Z,-0.58
2023-01-19T04:27:20.529Z,-0.58
2023-01-19T04:29:48.090Z,-0.55
2023-01-19T04:32:16.248Z,-0.78
2023-01-19T04:34:43.930Z,-0.80
2023-01-19T04:37:11.528Z,-0.89
2023-01-19T04:39:39.216Z,-1.12
2023-01-19T04:42:07.883Z,-0.97
2023-01-19T04:44:35.485Z,-0.97
2023-01-19T04:47:03.365Z,-0.88
2023-01-19T04:49:31.061Z,-0.85
2023-01-19T04:51:59.499Z,-0.79
2023-01-19T04:54:27.658Z,-0.80
2023-01-19T04:56:55.324Z,-0.52
2023-01-19T04:59:23.387Z,-0.43
2023-01-19T05:01:51.057Z,-0.36
2023-01-19T05:04:18.681Z,-0.39
2023-01-19T05:06:46.297Z,-0.29
2023-01-19T05:09:15.293Z,-0.27
2023-01-19T05:11:42.880Z,-0.38
2023-01-19T05:14:10.977Z,-0.52
2023-01-19T05:16:38.698Z,-0.38
2023-01-19T05:19:06.535Z,-0.17
2023-01-19T05:21:34.204Z,-0.06
2023-01-19T05:24:01.837Z,-0.18
2023-01-19T05:26:29.490Z,-0.34
2023-01-19T05:28:57.293Z,-0.95
2023-01-19T05:31:24.994Z,-0.65
2023-01-19T05:33:52.590Z,-0.64
2023-01-19T05:36:20.113Z,-1.02
2023-01-19T05:38:47.739Z,-0.63
2023-01-19T05:41:15.422Z,-0.56
2023-01-19T05:43:42.976Z,-0.49
2023-01-19T05:46:10.884Z,-0.49
2023-01-19T05:48:38.499Z,-0.41
2023-01-19T05:51:06.211Z,-0.42
2023-01-19T05:53:34.136Z,-0.47
2023-01-19T05:56:05.204Z,-0.42
2023-01-19T05:58:34.395Z,-0.37
2023-01-19T06:01:08.337Z,-0.48
2023-01-19T06:03:37.666Z,-0.52
2023-01-19T06:06:05.739Z,-0.41
2023-01-19T06:08:33.609Z,-0.31
2023-01-19T06:11:01.485Z,-0.48
2023-01-19T06:13:29.309Z,-0.49
2023-01-19T06:16:02.046Z,-0.47
2023-01-19T06:18:29.966Z,-0.36
2023-01-19T06:21:00.185Z,-0.46
2023-01-19T06:23:32.681Z,-0.46
2023-01-19T06:26:00.797Z,-0.47
2023-01-19T06:28:28.694Z,-0.57
2023-01-19T06:30:57.404Z,-0.58
2023-01-19T06:33:26.101Z,-0.60
2023-01-19T06:35:54.455Z,-0.60
2023-01-19T06:38:22.064Z,-0.59
2023-01-19T06:41:02.724Z,-0.54
2023-01-19T06:43:31.504Z,-0.64
2023-01-19T06:46:00.488Z,-0.58
2023-01-19T06:48:28.375Z,-0.42
2023-01-19T06:50:58.553Z,-0.44
2023-01-19T06:53:28.393Z,-0.38
2023-01-19T06:56:03.416Z,-0.26
2023-01-19T06:58:32.351Z,-0.17
2023-01-19T07:01:07.308Z,-0.14
2023-01-19T07:03:37.873Z,-0.31
2023-01-19T07:06:09.088Z,-0.36
2023-01-19T07:08:37.992Z,-0.11
2023-01-19T07:11:22.362Z,-0.07
2023-01-19T07:13:56.900Z,0.07
2023-01-19T07:16:25.031Z,0.17
2023-01-19T07:18:53.062Z,0.32
2023-01-19T07:21:20.881Z,0.21
2023-01-19T07:23:53.661Z,-0.40
2023-01-19T07:26:24.970Z,-0.39
2023-01-19T07:28:52.928Z,-0.64
2023-01-19T07:31:20.991Z,-0.38
2023-01-19T07:33:48.807Z,0.03
2023-01-19T07:36:16.446Z,0.07
2023-01-19T07:38:44.602Z,0.22
2023-01-19T07:41:12.428Z,0.36
2023-01-19T07:43:40.299Z,0.58
2023-01-19T07:46:08.564Z,0.37
2023-01-19T07:48:37.332Z,0.20
2023-01-19T07:51:11.083Z,0.36
2023-01-19T07:53:41.770Z,0.29
2023-01-19T07:56:10.137Z,0.48
2023-01-19T07:58:38.686Z,0.48
2023-01-19T08:01:12.291Z,0.60
2023-01-19T08:03:40.301Z,0.31
2023-01-19T08:06:20.950Z,-0.06
2023-01-19T08:08:48.890Z,-0.01
2023-01-19T08:11:22.222Z,-0.09
2023-01-19T08:13:50.177Z,0.15
2023-01-19T08:16:17.903Z,0.09
2023-01-19T08:18:46.005Z,0.01
2023-01-19T08:21:13.557Z,0.01
2023-01-19T08:23:41.306Z,-0.11
2023-01-19T08:26:30.134Z,0.32
2023-01-19T08:29:00.924Z,0.42
2023-01-19T08:31:29.485Z,0.69
2023-01-19T08:33:57.589Z,0.73
2023-01-19T08:36:25.459Z,0.60
2023-01-19T08:38:53.342Z,0.92
2023-01-19T08:41:22.309Z,0.98
2023-01-19T08:43:50.015Z,1.12
2023-01-19T08:46:20.789Z,1.06
2023-01-19T08:48:49.288Z,1.44
2023-01-19T08:51:17.954Z,1.08
2023-01-19T08:53:46.474Z,0.77
2023-01-19T08:56:14.404Z,1.35
2023-01-19T08:58:44.031Z,1.76
2023-01-19T09:01:22.220Z,1.73
2023-01-19T09:03:50.407Z,1.64
2023-01-19T09:06:19.248Z,1.60
2023-01-19T09:08:47.833Z,2.05
2023-01-19T09:11:17.358Z,2.25
2023-01-19T09:13:45.961Z,2.50
2023-01-19T09:16:16.043Z,2.54
2023-01-19T09:18:45.728Z,2.89
2023-01-19T09:21:14.985Z,2.54
2023-01-19T09:23:42.788Z,2.99
2023-01-19T09:26:11.004Z,2.89
2023-01-19T09:28:38.843Z,3.09
2023-01-19T09:31:08.657Z,3.28
2023-01-19T09:33:43.613Z,3.05
2023-01-19T09:36:14.202Z,2.88
2023-01-19T09:38:44.602Z,3.12
2023-01-19T09:41:23.185Z,3.45
2023-01-19T09:43:59.993Z,2.66
2023-01-19T09:46:44.312Z,3.03
2023-01-19T09:49:31.954Z,3.14
2023-01-19T09:52:00.030Z,3.03
2023-01-19T09:54:29.505Z,3.01
2023-01-19T09:56:57.168Z,3.49
2023-01-19T09:59:26.093Z,3.50
2023-01-19T10:02:24.728Z,3.45
2023-01-19T10:05:03.072Z,3.80
2023-01-19T10:08:03.877Z,3.83
2023-01-19T10:10:32.914Z,3.88
2023-01-19T10:13:21.624Z,4.10
2023-01-19T10:16:19.450Z,3.82
2023-01-19T10:18:53.542Z,4.25
2023-01-19T10:21:42.944Z,3.97
2023-01-19T10:24:40.582Z,4.23
2023-01-19T10:27:29.046Z,4.47
2023-01-19T10:29:58.293Z,4.70
2023-01-19T10:32:37.535Z,5.02
2023-01-19T10:35:42.016Z,5.03
2023-01-19T10:38:15.780Z,5.14
2023-01-19T10:41:04.569Z,5.23
2023-01-19T10:43:35.243Z,5.06
2023-01-19T10:46:17.389Z,5.04
2023-01-19T10:48:51.960Z,4.83
2023-01-19T10:51:20.626Z,5.12
2023-01-19T10:54:14.453Z,5.14
2023-01-19T10:56:42.647Z,5.25
2023-01-19T10:59:45.264Z,5.58
2023-01-19T11:02:20.630Z,5.83
2023-01-19T11:04:52.821Z,5.63
2023-01-19T11:07:29.232Z,5.58
2023-01-19T11:10:20.751Z,5.88
2023-01-19T11:13:11.366Z,5.75
2023-01-19T11:15:53.443Z,5.55
2023-01-19T11:18:32.863Z,5.31
2023-01-19T11:21:14.813Z,4.88
2023-01-19T11:23:55.471Z,4.32
2023-01-19T11:26:40.895Z,4.00
2023-01-19T11:29:23.248Z,4.02
2023-01-19T11:31:52.794Z,3.70
2023-01-19T11:34:28.254Z,3.76
2023-01-19T11:37:02.867Z,3.80
2023-01-19T11:39:46.108Z,3.99
2023-01-19T11:42:15.125Z,4.34
2023-01-19T11:45:49.423Z,3.86
2023-01-19T11:48:43.476Z,4.86
2023-01-19T11:51:18.381Z,4.92
2023-01-19T11:53:52.430Z,5.26
2023-01-19T11:56:28.913Z,5.17
2023-01-19T11:58:58.982Z,5.41
2023-01-19T12:01:36.923Z,4.92
2023-01-19T12:04:14.280Z,4.76
2023-01-19T12:06:47.825Z,4.76
2023-01-19T12:09:21.206Z,4.31
2023-01-19T12:12:04.138Z,4.39
2023-01-19T12:14:41.693Z,4.69
2023-01-19T12:17:26.378Z,4.62
2023-01-19T12:20:19.097Z,5.27
2023-01-19T12:23:14.047Z,4.76
2023-01-19T12:26:04.164Z,4.90
2023-01-19T12:28:37.685Z,5.21
2023-01-19T12:31:05.601Z,5.20
2023-01-19T12:33:39.182Z,4.77
2023-01-19T12:36:33.013Z,4.75
2023-01-19T12:39:19.868Z,4.46
2023-01-19T12:41:48.644Z,4.12
2023-01-19T12:44:24.205Z,4.07
2023-01-19T12:47:24.260Z,4.30
2023-01-19T12:50:05.901Z,4.56
2023-01-19T12:52:41.627Z,4.95
2023-01-19T12:55:15.705Z,5.15
2023-01-19T12:58:22.137Z,4.83
2023-01-19T13:01:18.826Z,4.85
2023-01-19T13:04:05.307Z,4.93
2023-01-19T13:06:48.805Z,4.85
2023-01-19T13:09:37.902Z,5.00
2023-01-19T13:12:14.274Z,5.07
2023-01-19T13:14:44.125Z,5.26
2023-01-19T13:17:33.545Z,5.36
2023-01-19T13:20:22.574Z,5.55
2023-01-19T13:22:52.287Z,5.14
2023-01-19T13:25:30.832Z,5.22
2023-01-19T13:27:59.785Z,5.26
2023-01-19T13:30:29.844Z,5.34
2023-01-19T13:33:07.090Z,5.15
2023-01-19T13:35:34.881Z,5.02
2023-01-19T13:38:03.667Z,4.89
2023-01-19T13:40:40.670Z,5.07
2023-01-19T13:43:29.152Z,5.28
2023-01-19T13:45:57.046Z,5.27
2023-01-19T13:48:25.876Z,5.28
2023-01-19T13:51:07.041Z,5.12
2023-01-19T13:53:35.435Z,4.86
2023-01-19T13:56:24.778Z,4.77
2023-01-19T13:59:15.271Z,5.00
2023-01-19T14:01:46.405Z,5.00
2023-01-19T14:04:34.249Z,5.02
2023-01-19T14:07:13.728Z,4.94
2023-01-19T14:09:41.637Z,4.92
2023-01-19T14:12:17.624Z,4.81
2023-01-19T14:14:48.193Z,4.62
2023-01-19T14:17:29.047Z,4.72
2023-01-19T14:19:59.043Z,4.80
2023-01-19T14:22:43.029Z,5.16
2023-01-19T14:25:38.537Z,5.06
2023-01-19T14:28:36.158Z,5.13
2023-01-19T14:31:27.566Z,5.18
2023-01-19T14:33:58.569Z,5.15
2023-01-19T14:36:36.160Z,4.98
2023-01-19T14:39:04.957Z,5.00
2023-01-19T14:41:47.872Z,4.72
2023-01-19T14:44:38.344Z,4.73
2023-01-19T14:47:07.511Z,4.83
2023-01-19T14:49:38.639Z,4.71
2023-01-19T14:52:21.517Z,4.60
2023-01-19T14:54:51.664Z,4.66
2023-01-19T14:57:21.466Z,4.29
2023-01-19T14:59:50.229Z,4.13
2023-01-19T15:02:19.236Z,3.99
2023-01-19T15:04:55.255Z,4.18
2023-01-19T15:07:25.147Z,4.18
2023-01-19T15:09:56.287Z,4.32
2023-01-19T15:12:28.068Z,4.22
2023-01-19T15:14:56.098Z,4.46
2023-01-19T15:17:26.749Z,4.43
2023-01-19T15:19:56.871Z,4.59
2023-01-19T15:22:50.728Z,4.77
2023-01-19T15:25:27.241Z,4.80
2023-01-19T15:27:59.222Z,4.82
2023-01-19T15:30:31.145Z,4.67
2023-01-19T15:32:59.526Z,4.53
2023-01-19T15:35:27.393Z,4.41
2023-01-19T15:37:55.109Z,4.43
2023-01-19T15:40:38.018Z,4.50
2023-01-19T15:43:05.809Z,4.50
2023-01-19T15:45:51.693Z,4.24
2023-01-19T15:48:20.428Z,4.31
2023-01-19T15:50:48.678Z,4.42
2023-01-19T15:53:21.671Z,4.48
2023-01-19T15:55:52.188Z,4.50
2023-01-19T15:58:23.726Z,4.62
2023-01-19T16:01:00.347Z,4.55
2023-01-19T16:03:28.180Z,4.66
2023-01-19T16:05:55.959Z,4.67
2023-01-19T16:08:23.551Z,4.70
2023-01-19T16:10:51.192Z,4.70
2023-01-19T16:13:18.947Z,4.67
2023-01-19T16:15:46.780Z,4.75
2023-01-19T16:18:14.600Z,4.75
2023-01-19T16:20:42.277Z,4.69
2023-01-19T16:23:14.968Z,4.67
2023-01-19T16:25:43.327Z,4.64
2023-01-19T16:28:11.221Z,4.45
2023-01-19T16:30:38.848Z,4.35
2023-01-19T16:33:08.313Z,4.39
2023-01-19T16:35:36.108Z,4.46
2023-01-19T16:38:03.988Z,4.53
2023-01-19T16:40:31.684Z,4.41
2023-01-19T16:42:59.327Z,4.29
2023-01-19T16:45:26.917Z,4.29
2023-01-19T16:47:54.640Z,4.32
2023-01-19T16:50:22.645Z,4.26
2023-01-19T16:52:56.083Z,3.94
2023-01-19T16:55:23.807Z,3.68
2023-01-19T16:57:52.477Z,3.84
2023-01-19T17:00:20.471Z,3.91
2023-01-19T17:02:48.153Z,4.11
2023-01-19T17:05:16.093Z,4.38
2023-01-19T17:07:44.403Z,4.57
2023-01-19T17:10:12.513Z,4.54
2023-01-19T17:12:59.862Z,4.46
2023-01-19T17:15:27.497Z,4.60
2023-01-19T17:17:55.185Z,4.51
2023-01-19T17:20:22.806Z,4.57
2023-01-19T17:22:50.438Z,4.49
2023-01-19T17:25:18.081Z,4.35
2023-01-19T17:27:48.879Z,4.57
2023-01-19T17:30:17.279Z,4.39
2023-01-19T17:32:44.906Z,4.41
2023-01-19T17:35:12.620Z,4.28
2023-01-19T17:37:40.262Z,4.31
2023-01-19T17:40:09.159Z,4.21
2023-01-19T17:42:41.863Z,4.10
2023-01-19T17:45:11.045Z,4.09
2023-01-19T17:47:38.786Z,3.70
2023-01-19T17:50:06.997Z,3.63
2023-01-19T17:52:34.800Z,3.27
2023-01-19T17:55:10.619Z,3.12
2023-01-19T17:57:38.308Z,3.41
2023-01-19T18:00:10.838Z,3.58
2023-01-19T18:02:41.494Z,3.72
2023-01-19T18:05:12.630Z,3.73
2023-01-19T18:07:40.714Z,3.56
2023-01-19T18:10:09.860Z,3.24
2023-01-19T18:12:37.580Z,3.48
2023-01-19T18:15:09.566Z,3.35
2023-01-19T18:17:39.968Z,3.50
2023-01-19T18:20:08.481Z,3.50
2023-01-19T18:22:36.154Z,3.45
2023-01-19T18:25:06.506Z,3.48
2023-01-19T18:27:34.196Z,3.40
2023-01-19T18:30:02.222Z,3.66
2023-01-19T18:32:30.216Z,3.47
2023-01-19T18:34:58.063Z,3.30
2023-01-19T18:37:31.083Z,3.28
2023-01-19T18:40:02.140Z,3.42
2023-01-19T18:42:29.888Z,3.33
2023-01-19T18:44:57.630Z,3.54
2023-01-19T18:47:25.821Z,3.73
2023-01-19T18:50:19.015Z,3.50
2023-01-19T18:52:52.718Z,3.39
2023-01-19T18:55:20.674Z,3.46
2023-01-19T18:57:51.060Z,3.69
2023-01-19T19:00:19.694Z,3.49
2023-01-19T19:02:47.284Z,3.41
2023-01-19T19:05:15.090Z,3.45
2023-01-19T19:07:43.250Z,3.47
2023-01-19T19:10:11.632Z,3.48
2023-01-19T19:12:39.413Z,3.38
2023-01-19T19:15:08.464Z,3.62
2023-01-19T19:17:36.205Z,3.84
2023-01-19T19:20:04.263Z,3.80
2023-01-19T19:22:32.659Z,3.70
2023-01-19T19:25:00.588Z,3.60
2023-01-19T19:27:28.534Z,3.66
2023-01-19T19:29:56.250Z,3.69
2023-01-19T19:32:23.892Z,3.63
2023-01-19T19:34:56.549Z,3.70
2023-01-19T19:37:25.338Z,3.52
2023-01-19T19:39:52.990Z,2.77
2023-01-19T19:42:20.553Z,3.01
2023-01-19T19:44:48.273Z,2.87
2023-01-19T19:47:16.005Z,2.63
2023-01-19T19:49:54.618Z,2.93
2023-01-19T19:52:22.486Z,3.26
2023-01-19T19:54:50.374Z,3.56
2023-01-19T19:57:18.062Z,3.77
2023-01-19T19:59:45.612Z,3.90
2023-01-19T20:02:16.347Z,3.83
2023-01-19T20:04:47.665Z,3.77
2023-01-19T20:07:17.842Z,3.91
2023-01-19T20:09:51.208Z,3.97
2023-01-19T20:12:18.953Z,3.94
2023-01-19T20:14:46.723Z,4.02
2023-01-19T20:17:14.613Z,3.94
2023-01-19T20:19:43.780Z,3.95
2023-01-19T20:22:11.225Z,4.01
2023-01-19T20:24:39.234Z,4.03
2023-01-19T20:27:07.221Z,3.83
2023-01-19T20:29:36.022Z,4.01
2023-01-19T20:32:03.761Z,4.07
2023-01-19T20:34:33.767Z,4.11
2023-01-19T20:37:06.143Z,3.86
2023-01-19T20:39:35.330Z,4.04
2023-01-19T20:42:04.939Z,4.03
2023-01-19T20:44:32.570Z,4.00
2023-01-19T20:47:00.301Z,4.03
2023-01-19T20:49:28.084Z,4.09
2023-01-19T20:51:55.835Z,3.91
2023-01-19T20:54:27.343Z,3.90
2023-01-19T20:56:55.675Z,3.93
2023-01-19T20:59:23.744Z,3.99
2023-01-19T21:01:51.950Z,3.80
2023-01-19T21:04:19.640Z,3.84
2023-01-19T21:06:47.276Z,3.94
2023-01-19T21:09:14.915Z,3.83
2023-01-19T21:11:42.471Z,3.86
2023-01-19T21:14:10.371Z,3.86
2023-01-19T21:16:38.532Z,3.69
2023-01-19T21:19:06.492Z,3.75
2023-01-19T21:21:34.150Z,3.79
2023-01-19T21:24:03.211Z,3.61
2023-01-19T21:26:33.245Z,3.69
2023-01-19T21:29:02.739Z,3.83
2023-01-19T21:31:31.168Z,3.84
2023-01-19T21:33:59.170Z,3.91
2023-01-19T21:36:27.334Z,3.92
2023-01-19T21:39:00.366Z,3.59
2023-01-19T21:41:35.761Z,3.74
2023-01-19T21:44:04.105Z,3.84
2023-01-19T21:46:33.400Z,3.73
2023-01-19T21:49:05.607Z,3.70
2023-01-19T21:51:36.274Z,3.69
2023-01-19T21:54:06.442Z,3.70
2023-01-19T21:56:35.100Z,3.58
2023-01-19T21:59:03.346Z,3.51
2023-01-19T22:01:32.863Z,3.54
2023-01-19T22:04:01.010Z,3.54
2023-01-19T22:06:29.099Z,3.46
2023-01-19T22:08:58.237Z,3.49
2023-01-19T22:11:25.725Z,3.43
2023-01-19T22:13:54.058Z,3.46
2023-01-19T22:16:23.350Z,3.35
2023-01-19T22:18:56.133Z,3.25
2023-01-19T22:21:34.078Z,3.19
2023-01-19T22:24:04.450Z,3.18
2023-01-19T22:26:34.134Z,3.19
2023-01-19T22:29:03.528Z,3.20
2023-01-19T22:31:31.674Z,3.20
2023-01-19T22:33:59.710Z,3.26
2023-01-19T22:36:35.288Z,3.21
2023-01-19T22:39:08.020Z,3.16
2023-01-19T22:41:45.175Z,3.17
2023-01-19T22:44:17.202Z,3.04
2023-01-19T22:46:45.298Z,3.01
2023-01-19T22:49:15.843Z,3.21
2023-01-19T22:51:44.330Z,3.37
2023-01-19T22:54:12.623Z,3.37
2023-01-19T22:56:41.001Z,3.43
2023-01-19T22:59:09.117Z,3.41
2023-01-19T23:01:40.457Z,3.46
2023-01-19T23:04:12.461Z,3.13
2023-01-19T23:06:40.383Z,2.93
2023-01-19T23:09:13.542Z,3.07
2023-01-19T23:11:44.837Z,3.22
2023-01-19T23:14:16.953Z,3.21
2023-01-19T23:16:44.956Z,3.34
2023-01-19T23:19:13.910Z,3.40
2023-01-19T23:21:42.884Z,3.37
2023-01-19T23:24:11.008Z,3.30
2023-01-19T23:26:39.361Z,3.14
2023-01-19T23:29:17.913Z,2.79
2023-01-19T23:31:49.815Z,2.91
2023-01-19T23:34:17.586Z,2.96
2023-01-19T23:36:45.816Z,2.80
2023-01-19T23:39:20.663Z,2.93
2023-01-19T23:41:49.636Z,2.89
2023-01-19T23:44:17.972Z,3.01
2023-01-19T23:46:46.182Z,2.87
2023-01-19T23:49:14.467Z,2.67
2023-01-19T23:51:42.753Z,2.71
2023-01-19T23:54:12.287Z,2.92
2023-01-19T23:56:42.618Z,2.81
2023-01-19T23:59:13.823Z,2.73
